Shark River Hills, New Jersey
Current Conditions -  °F | °C
As of 1:55 AM on Thursday 23 Oct 2014 (Local Time) from KBLM Reporting Station
Overcast Overcast  
Wind Chill: 52°   Ceiling: 1600
Heat Index: 52°   Visibility: 10mi
Dew Point: 45°   Wind: 13mph
Humidity: 76%   Direction: 350°N
Pressure: 29.68"   Gusts: 18mph
Location:  40.2205°N, 74.0818°W
Report Text: KBLM 230555Z AUTO 35011G16KT 10SM BKN016 OVC023 11/07 A2968 RMK AO1 P0002 60046 10110 20100 57017
Loading
Personal Weather Stations






























Interactive Weather Map
Tropical Storm Tracking
New forecast layout! Learn more

10-Day Weather Forecast

Advertisements
Track Severe Weather on mobile